createdAt,value
2018-07-04T00:02:26.938Z,95458.00
2018-07-04T00:05:13.334Z,95463.00
2018-07-04T00:07:59.266Z,95467.00
2018-07-04T00:10:45.081Z,95462.00
2018-07-04T00:13:30.871Z,95450.00
2018-07-04T00:16:16.845Z,95448.00
2018-07-04T00:19:03.654Z,95440.00
2018-07-04T00:21:49.593Z,95451.00
2018-07-04T00:24:35.705Z,95447.00
2018-07-04T00:27:21.774Z,95444.00
2018-07-04T00:30:07.837Z,95445.00
2018-07-04T00:32:53.797Z,95443.00
2018-07-04T00:35:40.665Z,95452.00
2018-07-04T00:38:26.729Z,95447.00
2018-07-04T00:41:12.718Z,95444.00
2018-07-04T00:43:58.596Z,95444.00
2018-07-04T00:46:44.735Z,95434.00
2018-07-04T00:49:30.790Z,95445.00
2018-07-04T00:52:16.725Z,95444.00
2018-07-04T00:55:02.638Z,95437.00
2018-07-04T00:57:48.690Z,95454.00
2018-07-04T01:00:34.666Z,95442.00
2018-07-04T01:03:20.827Z,95452.00
2018-07-04T01:06:06.712Z,95442.00
2018-07-04T01:08:52.746Z,95442.00
2018-07-04T01:11:38.662Z,95449.00
2018-07-04T01:14:24.597Z,95446.00
2018-07-04T01:17:10.397Z,95452.00
2018-07-04T01:19:56.431Z,95443.00
2018-07-04T01:22:42.502Z,95440.00
2018-07-04T01:25:28.444Z,95445.00
2018-07-04T01:28:14.324Z,95427.00
2018-07-04T01:31:00.258Z,95430.00
2018-07-04T01:33:46.154Z,95434.00
2018-07-04T01:36:32.094Z,95437.00
2018-07-04T01:39:18.004Z,95428.00
2018-07-04T01:42:03.956Z,95433.00
2018-07-04T01:44:50.066Z,95424.00
2018-07-04T01:47:35.985Z,95434.00
2018-07-04T01:50:21.882Z,95430.00
2018-07-04T01:53:07.769Z,95420.00
2018-07-04T01:55:53.696Z,95414.00
2018-07-04T01:58:39.641Z,95415.00
2018-07-04T02:01:25.461Z,95410.00
2018-07-04T02:04:11.390Z,95410.00
2018-07-04T02:06:57.243Z,95413.00
2018-07-04T02:09:43.217Z,95409.00
2018-07-04T02:12:29.110Z,95399.00
2018-07-04T02:15:15.146Z,95406.00
2018-07-04T02:18:01.116Z,95415.00
2018-07-04T02:20:47.053Z,95418.00
2018-07-04T02:23:32.978Z,95410.00
2018-07-04T02:26:18.886Z,95404.00
2018-07-04T02:29:04.752Z,95412.00
2018-07-04T02:31:50.671Z,95416.00
2018-07-04T02:34:36.535Z,95410.00
2018-07-04T02:37:22.537Z,95404.00
2018-07-04T02:40:08.486Z,95425.00
2018-07-04T02:42:54.343Z,95425.00
2018-07-04T02:45:40.401Z,95429.00
2018-07-04T02:48:26.455Z,95427.00
2018-07-04T02:51:12.329Z,95434.00
2018-07-04T02:53:58.120Z,95436.00
2018-07-04T02:56:43.970Z,95442.00
2018-07-04T02:59:29.845Z,95440.00
2018-07-04T03:02:15.846Z,95443.00
2018-07-04T03:05:01.768Z,95434.00
2018-07-04T03:07:47.662Z,95427.00
2018-07-04T03:10:33.870Z,95430.00
2018-07-04T03:13:19.937Z,95430.00
2018-07-04T03:16:05.876Z,95439.00
2018-07-04T03:18:51.870Z,95432.00
2018-07-04T03:21:37.682Z,95436.00
2018-07-04T03:24:23.742Z,95428.00
2018-07-04T03:27:09.777Z,95439.00
2018-07-04T03:29:55.654Z,95434.00
2018-07-04T03:32:41.540Z,95419.00
2018-07-04T03:35:27.512Z,95421.00
2018-07-04T03:38:13.355Z,95425.00
2018-07-04T03:40:59.514Z,95421.00
2018-07-04T03:43:45.351Z,95423.00
2018-07-04T03:46:31.254Z,95419.00
2018-07-04T03:49:17.182Z,95426.00
2018-07-04T03:52:03.046Z,95425.00
2018-07-04T03:54:48.949Z,95425.00
2018-07-04T03:57:34.927Z,95425.00
2018-07-04T04:00:20.823Z,95430.00
2018-07-04T04:03:06.734Z,95429.00
2018-07-04T04:05:52.663Z,95427.00
2018-07-04T04:08:38.674Z,95428.00
2018-07-04T04:11:24.791Z,95420.00
2018-07-04T04:14:10.718Z,95416.00
2018-07-04T04:16:56.572Z,95425.00
2018-07-04T04:19:42.569Z,95421.00
2018-07-04T04:22:28.502Z,95424.00
2018-07-04T04:25:14.407Z,95427.00
2018-07-04T04:28:00.275Z,95426.00
2018-07-04T04:30:46.132Z,95433.00
2018-07-04T04:33:32.176Z,95421.00
2018-07-04T04:36:18.072Z,95423.00
2018-07-04T04:39:04.510Z,95416.00
2018-07-04T04:41:50.439Z,95425.00
2018-07-04T04:44:36.306Z,95422.00
2018-07-04T04:47:22.125Z,95415.00
2018-07-04T04:50:08.030Z,95437.00
2018-07-04T04:52:53.973Z,95429.00
2018-07-04T04:55:39.850Z,95427.00
2018-07-04T04:58:25.744Z,95425.00
2018-07-04T05:01:11.618Z,95437.00
2018-07-04T05:03:57.568Z,95428.00
2018-07-04T05:06:43.653Z,95431.00
2018-07-04T05:09:29.470Z,95426.00
2018-07-04T05:12:09.350Z,95429.00
2018-07-04T05:14:55.421Z,95431.00
2018-07-04T05:17:41.391Z,95438.00
2018-07-04T05:20:27.301Z,95442.00
2018-07-04T05:23:13.173Z,95433.00
2018-07-04T05:25:59.046Z,95434.00
2018-07-04T05:28:44.953Z,95442.00
2018-07-04T05:31:30.819Z,95449.00
2018-07-04T05:34:16.774Z,95447.00
2018-07-04T05:37:02.685Z,95450.00
2018-07-04T05:39:48.711Z,95452.00
2018-07-04T05:42:34.637Z,95452.00
2018-07-04T05:45:20.591Z,95452.00
2018-07-04T05:48:06.567Z,95472.00
2018-07-04T05:50:52.466Z,95458.00
2018-07-04T05:53:38.349Z,95451.00
2018-07-04T05:56:24.243Z,95463.00
2018-07-04T05:59:10.314Z,95458.00
2018-07-04T06:01:56.321Z,95454.00
2018-07-04T06:04:42.274Z,95463.00
2018-07-04T06:07:28.773Z,95460.00
2018-07-04T06:10:14.799Z,95462.00
2018-07-04T06:13:00.577Z,95463.00
2018-07-04T06:15:46.516Z,95461.00
2018-07-04T06:18:32.516Z,95449.00
2018-07-04T06:21:18.602Z,95452.00
2018-07-04T06:24:04.635Z,95446.00
2018-07-04T06:26:50.706Z,95461.00
2018-07-04T06:29:36.654Z,95451.00
2018-07-04T06:32:22.548Z,95448.00
2018-07-04T06:35:08.455Z,95452.00
2018-07-04T06:37:37.957Z,95462.00
2018-07-04T06:40:06.022Z,95460.00
2018-07-04T06:42:34.281Z,95463.00
2018-07-04T06:45:01.814Z,95459.00
2018-07-04T06:47:29.350Z,95459.00
2018-07-04T06:49:56.873Z,95458.00
2018-07-04T06:52:24.405Z,95467.00
2018-07-04T06:54:52.237Z,95468.00
2018-07-04T06:57:20.633Z,95464.00
2018-07-04T06:59:48.724Z,95475.00
2018-07-04T07:02:17.439Z,95473.00
2018-07-04T07:05:03.925Z,95470.00
2018-07-04T07:07:49.990Z,95475.00
2018-07-04T07:10:35.886Z,95473.00
2018-07-04T07:13:21.781Z,95468.00
2018-07-04T07:16:07.682Z,95466.00
2018-07-04T07:18:53.686Z,95467.00
2018-07-04T07:21:39.636Z,95466.00
2018-07-04T07:24:25.538Z,95463.00
2018-07-04T07:27:11.474Z,95459.00
2018-07-04T07:29:57.250Z,95462.00
2018-07-04T07:32:43.378Z,95460.00
2018-07-04T07:35:29.234Z,95469.00
2018-07-04T07:38:15.154Z,95453.00
2018-07-04T07:41:01.011Z,95447.00
2018-07-04T07:43:47.024Z,95450.00
2018-07-04T07:46:32.876Z,95449.00
2018-07-04T07:49:13.066Z,95464.00
2018-07-04T07:51:59.092Z,95458.00
2018-07-04T07:54:45.076Z,95461.00
2018-07-04T07:57:31.006Z,95448.00
2018-07-04T08:00:16.841Z,95448.00
2018-07-04T08:03:02.657Z,95453.00
2018-07-04T08:05:48.788Z,95460.00
2018-07-04T08:08:34.896Z,95460.00
2018-07-04T08:11:20.712Z,95464.00
2018-07-04T08:14:06.655Z,95453.00
2018-07-04T08:16:52.438Z,95461.00
2018-07-04T08:19:38.364Z,95458.00
2018-07-04T08:22:24.215Z,95454.00
2018-07-04T08:25:10.145Z,95458.00
2018-07-04T08:27:56.181Z,95465.00
2018-07-04T08:30:42.422Z,95449.00
2018-07-04T08:33:29.208Z,95446.00
2018-07-04T08:36:15.074Z,95448.00
2018-07-04T08:39:01.184Z,95447.00
2018-07-04T08:41:47.511Z,95462.00
2018-07-04T08:44:33.626Z,95458.00
2018-07-04T08:47:19.737Z,95460.00
2018-07-04T08:50:05.611Z,95454.00
2018-07-04T08:52:51.835Z,95454.00
2018-07-04T08:55:37.655Z,95450.00
2018-07-04T08:58:23.593Z,95443.00
2018-07-04T09:01:09.525Z,95450.00
2018-07-04T09:03:55.662Z,95448.00
2018-07-04T09:06:41.715Z,95439.00
2018-07-04T09:09:28.448Z,95441.00
2018-07-04T09:12:14.545Z,95443.00
2018-07-04T09:15:00.873Z,95441.00
2018-07-04T09:17:46.897Z,95446.00
2018-07-04T09:20:33.012Z,95450.00
2018-07-04T09:23:19.027Z,95448.00
2018-07-04T09:26:05.926Z,95454.00
2018-07-04T09:28:52.814Z,95445.00
2018-07-04T09:31:38.885Z,95446.00
2018-07-04T09:34:24.940Z,95448.00
2018-07-04T09:37:10.878Z,95434.00
2018-07-04T09:39:56.670Z,95444.00
2018-07-04T09:42:42.662Z,95443.00
2018-07-04T09:45:29.000Z,95452.00
2018-07-04T09:48:14.990Z,95447.00
2018-07-04T09:51:02.032Z,95448.00
2018-07-04T09:53:47.990Z,95443.00
2018-07-04T09:56:34.295Z,95446.00
2018-07-04T09:59:20.075Z,95446.00
2018-07-04T10:02:06.665Z,95452.00
2018-07-04T10:04:52.714Z,95453.00
2018-07-04T10:07:38.702Z,95458.00
2018-07-04T10:10:24.542Z,95451.00
2018-07-04T10:13:11.253Z,95451.00
2018-07-04T10:15:57.220Z,95447.00
2018-07-04T10:18:37.166Z,95462.00
2018-07-04T10:21:17.745Z,95458.00
2018-07-04T10:24:03.674Z,95446.00
2018-07-04T10:26:49.578Z,95448.00
2018-07-04T10:29:35.392Z,95452.00
2018-07-04T10:32:21.574Z,95446.00
2018-07-04T10:35:07.749Z,95452.00
2018-07-04T10:37:53.903Z,95461.00
2018-07-04T10:40:39.930Z,95452.00
2018-07-04T10:43:25.858Z,95445.00
2018-07-04T10:46:11.699Z,95443.00
2018-07-04T10:48:57.858Z,95437.00
2018-07-04T10:51:43.809Z,95439.00
2018-07-04T10:54:29.730Z,95434.00
2018-07-04T10:57:15.571Z,95433.00
2018-07-04T11:00:01.554Z,95431.00
2018-07-04T11:02:47.398Z,95432.00
2018-07-04T11:05:33.516Z,95428.00
2018-07-04T11:08:19.534Z,95436.00
2018-07-04T11:11:05.529Z,95433.00
2018-07-04T11:13:51.457Z,95430.00
2018-07-04T11:16:38.390Z,95437.00
2018-07-04T11:19:24.322Z,95433.00
2018-07-04T11:22:10.259Z,95428.00
2018-07-04T11:24:56.922Z,95427.00
2018-07-04T11:27:42.879Z,95429.00
2018-07-04T11:30:29.760Z,95423.00
2018-07-04T11:33:15.655Z,95420.00
2018-07-04T11:36:01.658Z,95418.00
2018-07-04T11:38:47.681Z,95406.00
2018-07-04T11:41:33.740Z,95398.00
2018-07-04T11:44:19.737Z,95408.00
2018-07-04T11:46:48.133Z,95392.00
2018-07-04T11:49:15.680Z,95407.00
2018-07-04T11:51:43.460Z,95405.00
2018-07-04T11:54:11.232Z,95409.00
2018-07-04T11:56:38.824Z,95403.00
2018-07-04T11:59:06.367Z,95400.00
2018-07-04T12:01:34.015Z,95408.00
2018-07-04T12:04:19.841Z,95407.00
2018-07-04T12:07:08.605Z,95409.00
2018-07-04T12:09:37.736Z,95415.00
2018-07-04T12:12:05.383Z,95414.00
2018-07-04T12:14:33.201Z,95409.00
2018-07-04T12:17:01.465Z,95411.00
2018-07-04T12:19:28.984Z,95414.00
2018-07-04T12:21:56.519Z,95415.00
2018-07-04T12:24:24.040Z,95414.00
2018-07-04T12:26:51.637Z,95408.00
2018-07-04T12:29:19.090Z,95402.00
2018-07-04T12:31:46.877Z,95417.00
2018-07-04T12:34:14.459Z,95406.00
2018-07-04T12:36:41.997Z,95409.00
2018-07-04T12:39:09.774Z,95407.00
2018-07-04T12:41:37.303Z,95414.00
2018-07-04T12:44:04.826Z,95409.00
2018-07-04T12:46:33.231Z,95411.00
2018-07-04T12:49:04.051Z,95416.00
2018-07-04T12:51:32.807Z,95414.00
2018-07-04T12:54:05.700Z,95409.00
2018-07-04T12:56:51.602Z,95410.00
2018-07-04T12:59:37.657Z,95411.00
2018-07-04T13:02:23.541Z,95410.00
2018-07-04T13:05:09.532Z,95405.00
2018-07-04T13:07:55.594Z,95406.00
2018-07-04T13:10:41.468Z,95410.00
2018-07-04T13:13:27.307Z,95406.00
2018-07-04T13:16:13.185Z,95407.00
2018-07-04T13:18:59.239Z,95406.00
2018-07-04T13:21:45.144Z,95407.00
2018-07-04T13:24:31.330Z,95398.00
2018-07-04T13:27:17.502Z,95425.00
2018-07-04T13:30:03.361Z,95423.00
2018-07-04T13:32:49.357Z,95434.00
2018-07-04T13:35:35.405Z,95428.00
2018-07-04T13:38:21.406Z,95425.00
2018-07-04T13:41:07.271Z,95424.00
2018-07-04T13:43:53.166Z,95421.00
2018-07-04T13:46:39.787Z,95418.00
2018-07-04T13:49:25.905Z,95422.00
2018-07-04T13:52:11.885Z,95426.00
2018-07-04T13:54:57.738Z,95420.00
2018-07-04T13:57:43.733Z,95427.00
2018-07-04T14:00:29.529Z,95423.00
2018-07-04T14:03:09.542Z,95436.00
2018-07-04T14:05:55.574Z,95433.00
2018-07-04T14:08:41.474Z,95431.00
2018-07-04T14:11:27.383Z,95436.00
2018-07-04T14:14:13.414Z,95444.00
2018-07-04T14:16:59.346Z,95445.00
2018-07-04T14:19:45.215Z,95474.00
2018-07-04T14:22:31.074Z,95463.00
2018-07-04T14:25:16.926Z,95453.00
2018-07-04T14:28:03.022Z,95458.00
2018-07-04T14:30:49.401Z,95451.00
2018-07-04T14:33:35.459Z,95446.00
2018-07-04T14:36:21.564Z,95438.00
2018-07-04T14:39:07.836Z,95439.00
2018-07-04T14:41:53.900Z,95433.00
2018-07-04T14:44:42.071Z,95424.00
2018-07-04T14:47:28.198Z,95423.00
2018-07-04T14:50:14.397Z,95405.00
2018-07-04T14:53:00.598Z,95408.00
2018-07-04T14:55:46.514Z,95399.00
2018-07-04T14:58:32.679Z,95389.00
2018-07-04T15:01:18.746Z,95390.00
2018-07-04T15:04:05.230Z,95403.00
2018-07-04T15:06:51.300Z,95391.00
2018-07-04T15:09:37.718Z,95393.00
2018-07-04T15:12:23.825Z,95390.00
2018-07-04T15:15:09.963Z,95387.00
2018-07-04T15:17:55.905Z,95403.00
2018-07-04T15:20:41.943Z,95393.00
2018-07-04T15:23:28.070Z,95390.00
2018-07-04T15:26:13.938Z,95399.00
2018-07-04T15:28:59.898Z,95395.00
2018-07-04T15:31:45.752Z,95401.00
2018-07-04T15:34:31.838Z,95399.00
2018-07-04T15:37:17.819Z,95402.00
2018-07-04T15:40:04.146Z,95396.00
2018-07-04T15:42:49.917Z,95394.00
2018-07-04T15:45:36.275Z,95397.00
2018-07-04T15:48:22.121Z,95401.00
2018-07-04T15:51:08.435Z,95396.00
2018-07-04T15:53:54.330Z,95393.00
2018-07-04T15:56:40.458Z,95398.00
2018-07-04T15:59:26.375Z,95384.00
2018-07-04T16:02:12.291Z,95387.00
2018-07-04T16:04:58.338Z,95396.00
2018-07-04T16:07:38.498Z,95392.00
2018-07-04T16:10:25.889Z,95392.00
2018-07-04T16:13:11.818Z,95381.00
2018-07-04T16:15:57.991Z,95376.00
2018-07-04T16:18:44.085Z,95375.00
2018-07-04T16:21:35.136Z,95378.00
2018-07-04T16:24:21.282Z,95373.00
2018-07-04T16:27:07.916Z,95376.00
2018-07-04T16:29:54.212Z,95373.00
2018-07-04T16:32:51.757Z,95370.00
2018-07-04T16:35:38.318Z,95373.00
2018-07-04T16:38:24.666Z,95367.00
2018-07-04T16:41:10.860Z,95357.00
2018-07-04T16:43:57.197Z,95365.00
2018-07-04T16:46:39.027Z,95374.00
2018-07-04T16:49:25.106Z,95366.00
2018-07-04T16:52:12.532Z,95363.00
2018-07-04T16:54:59.186Z,95363.00
2018-07-04T16:57:46.715Z,95355.00
2018-07-04T17:00:32.726Z,95356.00
2018-07-04T17:03:18.925Z,95361.00
2018-07-04T17:06:05.219Z,95364.00
2018-07-04T17:08:51.802Z,95357.00
2018-07-04T17:11:37.790Z,95353.00
2018-07-04T17:14:24.451Z,95359.00
2018-07-04T17:17:11.254Z,95359.00
2018-07-04T17:19:57.456Z,95355.00
2018-07-04T17:22:44.785Z,95350.00
2018-07-04T17:25:30.950Z,95349.00
2018-07-04T17:28:17.022Z,95358.00
2018-07-04T17:31:04.918Z,95355.00
2018-07-04T17:33:51.364Z,95351.00
2018-07-04T17:36:37.663Z,95347.00
2018-07-04T17:39:23.930Z,95346.00
2018-07-04T17:42:10.822Z,95350.00
2018-07-04T17:44:57.223Z,95345.00
2018-07-04T17:47:43.925Z,95350.00
2018-07-04T17:50:30.210Z,95356.00
2018-07-04T17:53:16.435Z,95361.00
2018-07-04T17:56:02.590Z,95362.00
2018-07-04T17:58:49.033Z,95372.00
2018-07-04T18:01:35.263Z,95360.00
2018-07-04T18:04:21.525Z,95356.00
2018-07-04T18:07:07.474Z,95356.00
2018-07-04T18:09:53.750Z,95353.00
2018-07-04T18:12:35.173Z,95354.00
2018-07-04T18:15:21.090Z,95355.00
2018-07-04T18:18:07.261Z,95358.00
2018-07-04T18:20:53.418Z,95360.00
2018-07-04T18:23:39.490Z,95356.00
2018-07-04T18:26:25.843Z,95358.00
2018-07-04T18:29:12.111Z,95348.00
2018-07-04T18:31:58.173Z,95353.00
2018-07-04T18:34:44.136Z,95361.00
2018-07-04T18:37:30.350Z,95359.00
2018-07-04T18:40:16.657Z,95351.00
2018-07-04T18:43:02.828Z,95353.00
2018-07-04T18:45:49.050Z,95354.00
2018-07-04T18:48:29.170Z,95344.00
2018-07-04T18:51:15.430Z,95346.00
2018-07-04T18:54:01.681Z,95349.00
2018-07-04T18:56:47.992Z,95335.00
2018-07-04T18:59:34.205Z,95335.00
2018-07-04T19:02:20.536Z,95325.00
2018-07-04T19:05:06.731Z,95320.00
2018-07-04T19:07:53.147Z,95321.00
2018-07-04T19:10:35.207Z,95325.00
2018-07-04T19:13:21.615Z,95327.00
2018-07-04T19:16:08.007Z,95319.00
2018-07-04T19:18:54.188Z,95320.00
2018-07-04T19:21:41.064Z,95313.00
2018-07-04T19:24:21.154Z,95320.00
2018-07-04T19:27:07.217Z,95313.00
2018-07-04T19:29:53.529Z,95325.00
2018-07-04T19:32:39.713Z,95320.00
2018-07-04T19:35:25.815Z,95342.00
2018-07-04T19:38:12.018Z,95339.00
2018-07-04T19:40:58.093Z,95348.00
2018-07-04T19:43:44.541Z,95351.00
2018-07-04T19:46:30.768Z,95356.00
2018-07-04T19:49:17.049Z,95351.00
2018-07-04T19:52:03.438Z,95357.00
2018-07-04T19:54:49.557Z,95351.00
2018-07-04T19:57:35.743Z,95355.00
2018-07-04T20:00:21.918Z,95353.00
2018-07-04T20:03:08.158Z,95354.00
2018-07-04T20:05:54.222Z,95349.00
2018-07-04T20:08:35.047Z,95344.00
2018-07-04T20:11:21.742Z,95351.00
2018-07-04T20:14:08.220Z,95336.00
2018-07-04T20:16:54.448Z,95337.00
2018-07-04T20:19:41.246Z,95347.00
2018-07-04T20:22:27.671Z,95345.00
2018-07-04T20:25:14.934Z,95351.00
2018-07-04T20:28:01.287Z,95352.00
2018-07-04T20:30:47.427Z,95358.00
2018-07-04T20:33:33.636Z,95358.00
2018-07-04T20:36:19.951Z,95350.00
2018-07-04T20:39:06.783Z,95352.00
2018-07-04T20:41:53.265Z,95348.00
2018-07-04T20:44:39.718Z,95349.00
2018-07-04T20:47:26.056Z,95355.00
2018-07-04T20:50:11.930Z,95350.00
2018-07-04T20:52:58.318Z,95346.00
2018-07-04T20:55:45.412Z,95345.00
2018-07-04T20:58:31.694Z,95347.00
2018-07-04T21:01:17.951Z,95350.00
2018-07-04T21:04:04.630Z,95352.00
2018-07-04T21:06:50.947Z,95344.00
2018-07-04T21:09:36.999Z,95352.00
2018-07-04T21:12:23.090Z,95353.00
2018-07-04T21:15:09.443Z,95347.00
2018-07-04T21:17:55.602Z,95337.00
2018-07-04T21:20:41.540Z,95351.00
2018-07-04T21:23:27.838Z,95344.00
2018-07-04T21:26:14.158Z,95342.00
2018-07-04T21:29:00.395Z,95338.00
2018-07-04T21:31:46.890Z,95337.00
2018-07-04T21:34:33.314Z,95323.00
2018-07-04T21:37:19.794Z,95320.00
2018-07-04T21:40:06.063Z,95308.00
2018-07-04T21:42:52.497Z,95310.00
2018-07-04T21:45:38.666Z,95315.00
2018-07-04T21:48:25.014Z,95321.00
2018-07-04T21:51:11.147Z,95321.00
2018-07-04T21:53:57.526Z,95331.00
2018-07-04T21:56:43.965Z,95327.00
2018-07-04T21:59:30.222Z,95334.00
2018-07-04T22:02:17.575Z,95327.00
2018-07-04T22:05:04.030Z,95321.00
2018-07-04T22:07:50.250Z,95312.00
2018-07-04T22:10:37.028Z,95311.00
2018-07-04T22:13:23.200Z,95316.00
2018-07-04T22:16:09.509Z,95313.00
2018-07-04T22:18:55.580Z,95314.00
2018-07-04T22:21:41.698Z,95308.00
2018-07-04T22:24:28.018Z,95313.00
2018-07-04T22:27:14.034Z,95310.00
2018-07-04T22:30:00.952Z,95304.00
2018-07-04T22:32:46.838Z,95293.00
2018-07-04T22:35:33.183Z,95302.00
2018-07-04T22:38:19.386Z,95296.00
2018-07-04T22:41:06.883Z,95301.00
2018-07-04T22:43:53.234Z,95304.00
2018-07-04T22:46:39.366Z,95303.00
2018-07-04T22:49:25.853Z,95301.00
2018-07-04T22:52:12.092Z,95288.00
2018-07-04T22:54:58.300Z,95284.00
2018-07-04T22:57:44.457Z,95291.00
2018-07-04T23:00:30.650Z,95288.00
2018-07-04T23:03:17.502Z,95287.00
2018-07-04T23:06:03.884Z,95288.00
2018-07-04T23:08:50.040Z,95282.00
2018-07-04T23:11:37.271Z,95273.00
2018-07-04T23:14:23.375Z,95273.00
2018-07-04T23:17:09.638Z,95275.00
2018-07-04T23:19:55.926Z,95270.00
2018-07-04T23:22:42.039Z,95267.00
2018-07-04T23:25:28.609Z,95257.00
2018-07-04T23:28:14.904Z,95256.00
2018-07-04T23:31:01.180Z,95254.00
2018-07-04T23:33:47.483Z,95249.00
2018-07-04T23:36:27.922Z,95257.00
2018-07-04T23:39:14.103Z,95243.00
2018-07-04T23:42:00.461Z,95248.00
2018-07-04T23:44:46.677Z,95240.00
2018-07-04T23:47:32.658Z,95240.00
2018-07-04T23:50:18.790Z,95246.00
2018-07-04T23:53:04.731Z,95235.00
2018-07-04T23:55:50.788Z,95237.00
2018-07-04T23:58:37.686Z,95251.00
